Time;durP1;ratioP1;P1;durP2;ratioP2;P2;SDS_P1;SDS_P2;PMS_P1;PMS_P2;Temp;Humidity;BMP_temperature;BMP_pressure;BME280_temperature;BME280_humidity;BME280_pressure;Samples;Min_cycle;Max_cycle;Signal;HPM_P1;HPM_P2
2022/07/29 00:03:48;;;;;;;4.85;1.35;;;18.70;99.90;;;;;;7333916;32;20168;-62
2022/07/29 00:07:50;;;;;;;6.80;1.08;;;18.60;99.90;;;;;;7333455;32;20664;-62
2022/07/29 00:11:52;;;;;;;4.85;0.95;;;18.60;99.90;;;;;;7334376;32;20539;-63
2022/07/29 00:15:54;;;;;;;2.78;1.00;;;18.60;99.90;;;;;;7332105;32;20176;-62
2022/07/29 00:19:56;;;;;;;5.97;1.40;;;18.60;99.90;;;;;;7332856;32;20129;-62
2022/07/29 00:23:58;;;;;;;6.30;1.12;;;18.60;99.90;;;;;;7333582;32;20104;-62
2022/07/29 00:28:00;;;;;;;7.18;1.15;;;18.50;99.90;;;;;;7332796;32;20119;-62
2022/07/29 00:32:02;;;;;;;7.35;1.05;;;18.50;99.90;;;;;;7333547;32;20182;-62
2022/07/29 00:36:04;;;;;;;4.97;1.00;;;18.40;99.90;;;;;;7333228;32;20127;-62
2022/07/29 00:40:07;;;;;;;6.07;1.20;;;18.40;99.90;;;;;;7332263;32;20560;-62
2022/07/29 00:44:08;;;;;;;5.57;1.27;;;18.30;99.90;;;;;;7332804;32;20130;-60
2022/07/29 00:48:11;;;;;;;5.03;1.05;;;18.40;99.90;;;;;;7331103;32;20828;-61
2022/07/29 00:52:13;;;;;;;7.03;1.02;;;18.30;99.90;;;;;;7331653;32;20168;-62
2022/07/29 00:56:18;;;;;;;6.32;1.42;;;18.20;99.90;;;;;;7348088;32;20126;-62
2022/07/29 01:00:23;;;;;;;7.15;1.25;;;18.20;99.90;;;;;;7331580;32;20468;-62
2022/07/29 01:04:25;;;;;;;12.23;1.23;;;18.20;99.90;;;;;;7332152;32;20120;-61
2022/07/29 01:08:27;;;;;;;5.18;1.30;;;18.30;99.90;;;;;;7331170;32;20135;-62
2022/07/29 01:12:33;;;;;;;5.35;1.25;;;18.20;99.90;;;;;;7330737;32;20161;-61
2022/07/29 01:16:49;;;;;;;5.00;1.60;;;18.20;99.90;;;;;;7331571;32;20152;-61
2022/07/29 01:21:13;;;;;;;3.40;1.00;;;18.20;99.90;;;;;;7330282;32;20186;-61
2022/07/29 01:25:25;;;;;;;7.30;1.20;;;18.20;99.90;;;;;;7331084;32;20210;-60
2022/07/29 01:29:32;;;;;;;6.37;1.15;;;18.10;99.90;;;;;;7330451;32;20263;-62
2022/07/29 01:33:51;;;;;;;7.45;1.27;;;18.10;99.90;;;;;;7330656;32;20180;-62
2022/07/29 01:38:12;;;;;;;5.85;1.50;;;18.20;99.90;;;;;;7330662;32;20133;-62
2022/07/29 01:42:26;;;;;;;4.65;1.05;;;18.00;99.90;;;;;;7331274;32;20120;-62
2022/07/29 01:46:34;;;;;;;9.57;1.90;;;18.00;99.90;;;;;;7332475;32;20155;-61
2022/07/29 01:50:47;;;;;;;3.47;1.10;;;18.00;99.90;;;;;;7332380;32;20107;-61
2022/07/29 01:54:57;;;;;;;6.00;1.25;;;18.00;99.90;;;;;;7340654;32;20374;-62
2022/07/29 01:58:59;;;;;;;5.43;1.52;;;17.90;99.90;;;;;;7339254;32;20112;-62
2022/07/29 02:03:07;;;;;;;5.00;1.23;;;17.90;99.90;;;;;;7331917;32;20289;-61
2022/07/29 02:07:10;;;;;;;;;;;17.90;99.90;;;;;;7332791;32;20559;-62
2022/07/29 02:11:12;;;;;;;5.57;1.60;;;17.90;99.90;;;;;;7330859;32;20027;-61
2022/07/29 02:15:16;;;;;;;5.78;1.30;;;17.90;99.90;;;;;;7330554;32;20168;-62
2022/07/29 02:19:20;;;;;;;5.37;1.33;;;17.90;99.90;;;;;;7327655;32;20585;-62
2022/07/29 02:23:24;;;;;;;6.18;1.55;;;17.80;99.90;;;;;;7332325;32;20183;-62
2022/07/29 02:27:28;;;;;;;6.75;1.55;;;17.80;99.90;;;;;;7331774;32;20188;-62
2022/07/29 02:31:33;;;;;;;6.90;1.08;;;17.70;99.90;;;;;;7331368;32;20284;-62
2022/07/29 02:35:36;;;;;;;5.22;1.20;;;17.60;99.90;;;;;;7331658;32;20812;-63
2022/07/29 02:39:46;;;;;;;4.78;1.17;;;17.60;99.90;;;;;;7331189;32;20180;-62
2022/07/29 02:43:58;;;;;;;5.15;1.40;;;17.70;99.90;;;;;;7332034;32;20190;-62
2022/07/29 02:48:11;;;;;;;7.97;1.62;;;17.80;99.90;;;;;;7335610;32;20131;-61
2022/07/29 02:52:42;;;;;;;10.00;1.85;;;17.90;99.90;;;;;;7335797;32;20505;-62
2022/07/29 02:56:45;;;;;;;10.02;2.22;;;17.90;99.90;;;;;;7336021;32;20564;-63
2022/07/29 03:00:51;;;;;;;4.25;1.90;;;17.80;99.90;;;;;;7359979;32;20138;-62
2022/07/29 03:04:55;;;;;;;7.18;1.95;;;17.70;99.90;;;;;;7360493;32;20162;-62
2022/07/29 03:08:59;;;;;;;6.95;1.80;;;17.70;99.90;;;;;;7360391;32;20107;-63
2022/07/29 03:13:01;;;;;;;6.10;1.30;;;17.50;99.90;;;;;;7359269;32;20267;-63
2022/07/29 03:17:04;;;;;;;5.97;1.75;;;17.50;99.90;;;;;;7361047;32;20144;-63
2022/07/29 03:21:05;;;;;;;6.32;1.52;;;17.50;99.90;;;;;;7359956;32;20210;-62
2022/07/29 03:25:09;;;;;;;5.75;1.80;;;17.50;99.90;;;;;;7360641;32;20179;-62
2022/07/29 03:29:10;;;;;;;4.60;1.48;;;17.50;99.90;;;;;;7359774;32;20143;-62
2022/07/29 03:33:14;;;;;;;4.68;1.70;;;17.40;99.90;;;;;;7360074;32;20119;-62
2022/07/29 03:37:16;;;;;;;5.70;1.37;;;17.50;99.90;;;;;;7360421;32;20143;-62
2022/07/29 03:41:19;;;;;;;4.10;1.40;;;17.50;99.90;;;;;;7359569;32;20525;-62
2022/07/29 03:45:25;;;;;;;5.43;1.12;;;17.50;99.90;;;;;;7360395;32;20483;-62
2022/07/29 03:49:27;;;;;;;7.87;1.33;;;17.40;99.90;;;;;;7359082;32;20535;-61
2022/07/29 03:53:29;;;;;;;5.95;1.33;;;17.50;99.90;;;;;;7360300;32;20242;-62
2022/07/29 03:57:32;;;;;;;5.40;1.30;;;17.40;99.90;;;;;;7340730;32;20277;-60
2022/07/29 04:01:35;;;;;;;5.43;1.40;;;17.40;99.90;;;;;;7359685;32;20163;-62
2022/07/29 04:05:37;;;;;;;6.70;1.45;;;17.20;99.90;;;;;;7359438;32;20129;-61
2022/07/29 04:09:38;;;;;;;4.60;1.40;;;17.10;99.90;;;;;;7358459;32;20119;-61
2022/07/29 04:13:40;;;;;;;3.42;1.30;;;16.80;99.90;;;;;;7357373;32;20115;-62
2022/07/29 04:17:42;;;;;;;2.92;1.30;;;16.70;99.90;;;;;;7358895;32;20453;-61
2022/07/29 04:21:45;;;;;;;6.28;1.23;;;16.50;99.90;;;;;;7359207;32;20753;-62
2022/07/29 04:25:46;;;;;;;5.90;1.60;;;16.40;99.90;;;;;;7359148;32;20172;-62
2022/07/29 04:29:48;;;;;;;3.78;1.42;;;16.40;99.90;;;;;;7358104;32;20180;-62
2022/07/29 04:33:57;;;;;;;10.32;2.00;;;16.40;99.90;;;;;;7358494;32;20121;-62
2022/07/29 04:37:59;;;;;;;4.68;1.50;;;16.30;99.90;;;;;;7357135;32;20135;-62
2022/07/29 04:42:01;;;;;;;9.45;1.80;;;16.20;99.90;;;;;;7356968;32;20127;-62
2022/07/29 04:46:03;;;;;;;6.62;1.83;;;16.10;99.90;;;;;;7358662;32;20194;-62
2022/07/29 04:50:06;;;;;;;9.82;2.35;;;16.10;99.90;;;;;;7357156;32;20174;-66
2022/07/29 04:54:08;;;;;;;10.23;2.47;;;16.10;99.90;;;;;;7353988;32;20116;-66
2022/07/29 04:58:10;;;;;;;9.10;2.60;;;15.90;99.90;;;;;;7338277;32;20741;-67
2022/07/29 05:02:12;;;;;;;8.02;3.00;;;15.70;99.90;;;;;;7351779;32;20938;-66
2022/07/29 05:06:14;;;;;;;8.90;3.33;;;15.50;99.90;;;;;;7332145;32;20126;-67
2022/07/29 05:10:16;;;;;;;9.23;3.35;;;15.40;99.90;;;;;;7330929;32;20131;-66
2022/07/29 05:14:17;;;;;;;8.23;4.47;;;15.20;99.90;;;;;;7330399;32;20157;-66
2022/07/29 05:18:20;;;;;;;8.25;2.80;;;15.00;99.90;;;;;;7330780;32;20099;-66
2022/07/29 05:22:26;;;;;;;8.25;2.85;;;14.90;99.90;;;;;;7331799;32;20773;-67
2022/07/29 05:26:28;;;;;;;8.60;2.87;;;14.60;99.90;;;;;;7331361;32;20170;-65
2022/07/29 05:30:30;;;;;;;6.87;3.22;;;14.40;99.90;;;;;;7331627;32;20171;-66
2022/07/29 05:34:32;;;;;;;6.50;3.65;;;14.30;99.90;;;;;;7331672;32;20170;-67
2022/07/29 05:38:35;;;;;;;5.85;2.83;;;14.40;99.90;;;;;;7331233;32;20116;-66
2022/07/29 05:42:36;;;;;;;6.25;2.72;;;14.40;99.90;;;;;;7331285;32;20567;-66
2022/07/29 05:46:38;;;;;;;9.43;2.87;;;14.40;99.90;;;;;;7331038;32;20446;-66
2022/07/29 05:50:40;;;;;;;6.60;3.08;;;14.40;99.90;;;;;;7330467;32;20099;-67
2022/07/29 05:54:45;;;;;;;5.53;2.33;;;14.50;99.90;;;;;;7339436;32;20111;-65
2022/07/29 05:58:46;;;;;;;5.97;3.08;;;14.50;99.90;;;;;;7339832;32;20107;-67
2022/07/29 06:02:48;;;;;;;7.50;3.15;;;14.50;99.90;;;;;;7331189;32;20159;-67
2022/07/29 06:06:50;;;;;;;5.05;2.80;;;14.60;99.90;;;;;;7330493;32;20875;-66
2022/07/29 06:10:52;;;;;;;6.35;3.55;;;14.70;99.90;;;;;;7330737;32;20265;-66
2022/07/29 06:14:53;;;;;;;6.97;3.30;;;14.90;99.90;;;;;;7328846;32;20131;-66
2022/07/29 06:18:55;;;;;;;8.93;3.05;;;15.10;99.90;;;;;;7330511;32;20777;-67
2022/07/29 06:22:57;;;;;;;5.47;2.60;;;15.20;99.90;;;;;;7335837;32;20167;-67
2022/07/29 06:26:59;;;;;;;5.25;2.78;;;15.40;99.90;;;;;;7335424;32;20172;-65
2022/07/29 06:31:00;;;;;;;5.85;3.03;;;15.50;99.90;;;;;;7334731;32;20585;-66
2022/07/29 06:35:03;;;;;;;5.35;3.12;;;15.60;99.90;;;;;;7335793;32;20206;-66
2022/07/29 06:39:24;;;;;;;8.60;3.00;;;15.70;99.90;;;;;;7334760;32;20107;-66
2022/07/29 06:43:37;;;;;;;5.03;2.80;;;15.70;99.90;;;;;;7334764;32;20136;-65
2022/07/29 06:47:57;;;;;;;6.80;3.53;;;15.70;99.90;;;;;;7334425;32;20184;-65
2022/07/29 06:51:59;;;;;;;7.55;3.67;;;15.70;99.90;;;;;;7334310;32;20158;-66
2022/07/29 06:56:02;;;;;;;10.70;3.42;;;15.70;99.90;;;;;;7350985;32;20440;-65
2022/07/29 07:00:05;;;;;;;6.60;3.80;;;15.80;99.90;;;;;;7335441;32;20179;-66
2022/07/29 07:04:10;;;;;;;5.12;4.03;;;15.80;99.90;;;;;;7335013;32;20456;-65
2022/07/29 07:08:13;;;;;;;5.62;4.00;;;15.90;99.90;;;;;;7334268;32;20559;-65
2022/07/29 07:12:14;;;;;;;7.37;3.72;;;16.00;99.90;;;;;;7334437;32;20729;-66
2022/07/29 07:16:16;;;;;;;7.22;4.30;;;16.00;99.90;;;;;;7333763;32;20115;-66
2022/07/29 07:20:18;;;;;;;6.10;3.47;;;16.00;99.90;;;;;;7333764;32;20182;-65
2022/07/29 07:24:20;;;;;;;6.90;3.85;;;16.20;99.90;;;;;;7334665;32;20161;-66
2022/07/29 07:28:22;;;;;;;9.45;3.85;;;16.10;99.90;;;;;;7333527;32;20263;-65
2022/07/29 07:32:25;;;;;;;6.32;4.10;;;16.10;99.90;;;;;;7334111;32;20171;-66
2022/07/29 07:36:27;;;;;;;6.15;3.22;;;16.20;99.90;;;;;;7334307;32;20116;-66
2022/07/29 07:40:29;;;;;;;6.03;4.15;;;16.20;99.90;;;;;;7333342;32;20116;-66
2022/07/29 07:44:31;;;;;;;7.07;4.07;;;16.30;99.90;;;;;;7333409;32;20131;-66
2022/07/29 07:48:34;;;;;;;8.00;3.65;;;16.20;99.90;;;;;;7332870;32;20220;-65
2022/07/29 07:52:52;;;;;;;6.50;3.58;;;16.20;99.90;;;;;;7333530;32;20126;-66
2022/07/29 07:56:54;;;;;;;8.18;4.00;;;16.20;99.90;;;;;;7350266;32;20225;-65
2022/07/29 08:00:56;;;;;;;8.90;4.20;;;16.20;99.90;;;;;;7332208;32;20733;-66
2022/07/29 08:04:59;;;;;;;7.15;4.50;;;16.20;99.90;;;;;;7333684;32;20112;-66
2022/07/29 08:09:01;;;;;;;7.28;3.83;;;16.10;99.90;;;;;;7332841;32;20574;-66
2022/07/29 08:13:27;;;;;;;7.62;4.15;;;16.10;99.90;;;;;;7331704;32;20107;-66
2022/07/29 08:17:28;;;;;;;5.85;4.40;;;16.10;99.90;;;;;;7333000;32;20126;-66
2022/07/29 08:21:36;;;;;;;8.80;4.85;;;16.20;99.90;;;;;;7332952;32;20171;-66
2022/07/29 08:25:38;;;;;;;8.43;4.80;;;16.20;99.90;;;;;;7333242;32;20187;-66
2022/07/29 08:29:41;;;;;;;9.05;5.10;;;16.10;99.90;;;;;;7331777;32;20514;-66
2022/07/29 08:33:42;;;;;;;6.93;5.22;;;16.10;99.90;;;;;;7332704;32;20108;-66
2022/07/29 08:37:44;;;;;;;9.20;5.60;;;16.20;99.90;;;;;;7332150;32;20147;-66
2022/07/29 08:41:47;;;;;;;10.40;5.62;;;16.10;99.90;;;;;;7332240;32;20115;-66
2022/07/29 08:46:02;;;;;;;8.45;5.45;;;16.10;99.90;;;;;;7332449;32;20748;-66
2022/07/29 08:50:04;;;;;;;8.40;5.10;;;16.10;99.90;;;;;;7331031;32;20141;-66
2022/07/29 08:54:16;;;;;;;10.55;5.57;;;16.00;99.90;;;;;;7335833;32;20171;-66
2022/07/29 08:58:19;;;;;;;7.70;4.50;;;15.90;99.90;;;;;;7343725;32;20123;-66
2022/07/29 09:02:26;;;;;;;9.93;5.00;;;15.80;99.90;;;;;;7332015;32;20178;-66
2022/07/29 09:06:39;;;;;;;9.40;4.37;;;15.70;99.90;;;;;;7331799;32;20421;-66
2022/07/29 09:10:41;;;;;;;5.78;3.92;;;15.80;99.90;;;;;;7331343;32;20157;-66
2022/07/29 09:14:43;;;;;;;8.05;4.03;;;15.70;99.90;;;;;;7330669;32;20602;-66
2022/07/29 09:18:45;;;;;;;8.93;4.25;;;15.70;99.90;;;;;;7331165;32;20129;-66
2022/07/29 09:22:56;;;;;;;5.90;4.37;;;15.80;99.90;;;;;;7332061;32;20107;-66
2022/07/29 09:26:58;;;;;;;8.80;4.47;;;15.80;99.90;;;;;;7332065;32;20111;-66
2022/07/29 09:30:59;;;;;;;12.00;4.80;;;16.00;99.90;;;;;;7331209;32;20137;-66
2022/07/29 09:35:24;;;;;;;12.55;4.37;;;16.30;99.90;;;;;;7331624;32;20164;-66
2022/07/29 09:39:46;;;;;;;8.95;4.68;;;16.50;99.90;;;;;;7330844;32;20168;-68
2022/07/29 09:43:58;;;;;;;9.38;4.80;;;16.80;99.90;;;;;;7330722;32;20126;-66
2022/07/29 09:48:24;;;;;;;10.48;4.28;;;17.10;99.90;;;;;;7331020;32;20176;-66
2022/07/29 09:52:27;;;;;;;7.62;3.97;;;17.30;99.90;;;;;;7331535;32;20142;-66
2022/07/29 09:56:42;;;;;;;5.62;3.70;;;17.50;99.90;;;;;;7352665;32;20690;-66
2022/07/29 10:00:45;;;;;;;6.60;3.50;;;17.80;99.90;;;;;;7335856;32;20766;-64
2022/07/29 10:04:47;;;;;;;5.10;3.40;;;17.90;99.90;;;;;;7339491;32;20619;-66
2022/07/29 10:08:49;;;;;;;10.82;3.40;;;17.90;99.90;;;;;;7335656;32;20167;-66
2022/07/29 10:12:54;;;;;;;8.38;3.47;;;17.70;99.90;;;;;;7334510;32;20140;-66
2022/07/29 10:16:57;;;;;;;7.45;3.87;;;17.60;99.90;;;;;;7336624;32;20192;-65
2022/07/29 10:21:00;;;;;;;5.55;3.62;;;17.60;99.90;;;;;;7335351;32;20347;-66
2022/07/29 10:25:02;;;;;;;6.80;3.70;;;17.60;99.90;;;;;;7336319;32;20242;-65
2022/07/29 10:29:04;;;;;;;9.77;3.78;;;17.80;99.90;;;;;;7335130;32;20134;-66
2022/07/29 10:33:39;;;;;;;9.07;4.30;;;17.90;99.90;;;;;;7335970;32;20126;-66
2022/07/29 10:38:19;;;;;;;5.93;3.78;;;18.00;99.90;;;;;;7335605;32;20116;-65
2022/07/29 10:42:29;;;;;;;7.40;4.40;;;18.20;99.90;;;;;;7297542;32;20542;-66
2022/07/29 10:46:40;;;;;;;9.35;4.97;;;18.40;99.90;;;;;;7335497;32;20127;-66
2022/07/29 10:50:54;;;;;;;8.35;4.18;;;18.60;99.90;;;;;;7335126;32;20111;-66
2022/07/29 10:54:58;;;;;;;7.22;3.80;;;18.60;99.90;;;;;;7344270;32;20183;-66
2022/07/29 10:59:21;;;;;;;10.10;4.55;;;18.80;99.90;;;;;;7342137;32;20126;-67
2022/07/29 11:03:47;;;;;;;13.35;4.80;;;18.80;99.90;;;;;;7335526;32;20108;-66
2022/07/29 11:08:12;;;;;;;10.13;5.10;;;19.00;99.90;;;;;;7334229;32;20135;-66
2022/07/29 11:12:36;;;;;;;9.15;4.57;;;18.90;99.90;;;;;;7334798;32;20507;-67
2022/07/29 11:17:06;;;;;;;8.75;4.60;;;19.10;99.90;;;;;;7334821;32;20183;-66
2022/07/29 11:21:38;;;;;;;13.88;5.60;;;19.40;99.90;;;;;;7334097;32;20255;-67
2022/07/29 11:26:14;;;;;;;11.07;4.78;;;19.80;99.90;;;;;;7334592;32;20114;-67
2022/07/29 11:30:19;;;;;;;10.90;3.97;;;19.90;99.90;;;;;;7333707;32;20508;-67
2022/07/29 11:34:32;;;;;;;8.75;3.15;;;20.30;99.90;;;;;;7334019;32;20227;-67
2022/07/29 11:38:35;;;;;;;8.18;3.55;;;20.50;99.90;;;;;;7333216;32;20841;-66
2022/07/29 11:42:43;;;;;;;7.45;3.25;;;21.10;99.90;;;;;;7333705;32;20522;-66
2022/07/29 11:46:50;;;;;;;11.25;3.55;;;21.70;99.90;;;;;;7334018;32;20601;-67
2022/07/29 11:50:54;;;;;;;8.82;2.97;;;21.90;99.90;;;;;;7333209;32;20147;-66
2022/07/29 11:55:02;;;;;;;7.93;2.70;;;22.00;99.90;;;;;;7343014;32;20167;-66
2022/07/29 11:59:11;;;;;;;7.65;2.40;;;22.30;99.90;;;;;;7339517;32;20139;-67
2022/07/29 12:03:25;;;;;;;7.25;2.03;;;22.50;99.90;;;;;;7333424;32;20108;-66
2022/07/29 12:07:38;;;;;;;4.05;2.30;;;22.60;99.90;;;;;;7333230;32;20107;-66
2022/07/29 12:11:42;;;;;;;6.40;2.45;;;22.60;99.90;;;;;;7333359;32;20108;-67
2022/07/29 12:15:56;;;;;;;8.03;2.80;;;22.70;99.90;;;;;;7332373;32;20127;-66
2022/07/29 12:20:04;;;;;;;9.27;2.53;;;22.60;99.90;;;;;;7334281;32;20108;-67
2022/07/29 12:24:08;;;;;;;8.15;2.50;;;22.60;99.90;;;;;;7336723;32;20104;-67
2022/07/29 12:28:13;;;;;;;10.43;2.90;;;22.80;99.90;;;;;;7335202;32;20184;-67
2022/07/29 12:32:34;;;;;;;4.95;2.25;;;22.80;99.90;;;;;;7335952;32;20112;-67
2022/07/29 12:36:37;;;;;;;6.18;2.40;;;23.00;99.90;;;;;;7336118;32;20508;-67
2022/07/29 12:40:39;;;;;;;4.60;2.20;;;22.90;99.90;;;;;;7334086;32;20112;-68
2022/07/29 12:44:48;;;;;;;6.68;2.05;;;23.00;99.90;;;;;;7332525;32;20111;-65
2022/07/29 12:48:56;;;;;;;4.68;2.00;;;23.00;99.90;;;;;;7331674;32;20187;-66
2022/07/29 12:53:12;;;;;;;6.62;2.25;;;23.00;99.90;;;;;;7331675;32;20107;-66
2022/07/29 12:57:13;;;;;;;4.87;2.22;;;22.80;99.90;;;;;;7349994;32;20657;-66
2022/07/29 13:01:21;;;;;;;11.23;2.40;;;22.80;99.90;;;;;;7332123;32;20103;-67
2022/07/29 13:05:24;;;;;;;7.20;2.65;;;23.00;99.90;;;;;;7332118;32;20112;-67
2022/07/29 13:09:37;;;;;;;10.07;2.90;;;23.50;99.90;;;;;;7331733;32;20150;-67
2022/07/29 13:13:51;;;;;;;8.55;2.45;;;24.00;99.90;;;;;;7330762;32;20124;-67
2022/07/29 13:18:30;;;;;;;8.77;2.80;;;24.20;99.90;;;;;;7331524;32;20108;-67
2022/07/29 13:22:32;;;;;;;9.65;2.65;;;24.30;99.90;;;;;;7331614;32;20115;-66
2022/07/29 13:26:34;;;;;;;10.30;2.62;;;24.20;99.90;;;;;;7332402;32;20209;-67
2022/07/29 13:30:36;;;;;;;5.55;2.25;;;24.10;99.90;;;;;;7330921;32;20156;-66
2022/07/29 13:34:45;;;;;;;7.70;2.15;;;24.10;99.90;;;;;;7332298;32;20134;-66
2022/07/29 13:38:47;;;;;;;10.25;3.28;;;24.20;99.90;;;;;;7331620;32;20295;-67
2022/07/29 13:42:48;;;;;;;4.85;2.25;;;24.40;99.90;;;;;;7334109;32;20111;-64
2022/07/29 13:46:50;;;;;;;6.25;2.42;;;24.60;99.90;;;;;;7357944;32;20143;-64
2022/07/29 13:50:52;;;;;;;7.70;2.50;;;24.50;99.90;;;;;;7355181;32;20154;-65
2022/07/29 13:54:54;;;;;;;5.82;2.22;;;24.90;99.90;;;;;;7356803;32;20194;-66
2022/07/29 13:58:56;;;;;;;6.60;2.17;;;25.00;99.90;;;;;;7339590;32;20170;-65
2022/07/29 14:02:58;;;;;;;6.78;2.50;;;25.40;99.90;;;;;;7331928;32;20452;-66
2022/07/29 14:07:01;;;;;;;5.65;2.30;;;25.90;99.90;;;;;;7331543;32;20157;-65
2022/07/29 14:11:04;;;;;;;10.05;2.33;;;25.60;99.90;;;;;;7351962;32;20362;-65
2022/07/29 14:15:06;;;;;;;8.80;2.50;;;25.70;99.90;;;;;;7355688;32;20110;-64
2022/07/29 14:19:08;;;;;;;7.43;2.30;;;25.50;99.90;;;;;;7355782;32;20171;-65
2022/07/29 14:23:10;;;;;;;5.70;2.40;;;25.50;99.90;;;;;;7356619;32;20107;-65
2022/07/29 14:27:13;;;;;;;8.30;2.20;;;25.80;99.90;;;;;;7357182;32;20111;-65
2022/07/29 14:31:15;;;;;;;8.77;2.62;;;25.50;99.90;;;;;;7356111;32;20119;-65
2022/07/29 14:35:17;;;;;;;7.82;2.22;;;25.50;99.90;;;;;;7357135;32;20187;-66
2022/07/29 14:39:19;;;;;;;8.20;2.10;;;25.80;99.90;;;;;;7355537;32;20171;-65
2022/07/29 14:43:21;;;;;;;4.70;2.00;;;25.80;99.90;;;;;;7361095;32;20123;-65
2022/07/29 14:47:23;;;;;;;6.07;1.85;;;25.90;99.90;;;;;;7361299;32;20285;-65
2022/07/29 14:51:24;;;;;;;5.45;2.15;;;25.60;99.90;;;;;;7360008;32;20194;-65
2022/07/29 14:55:33;;;;;;;8.93;2.20;;;25.50;99.90;;;;;;7347366;32;20119;-65
2022/07/29 14:59:34;;;;;;;8.13;4.53;;;25.30;99.90;;;;;;7355134;32;20198;-65
2022/07/29 15:03:36;;;;;;;6.20;1.80;;;25.50;99.90;;;;;;7361129;32;20135;-64
2022/07/29 15:07:38;;;;;;;7.80;2.12;;;25.10;99.90;;;;;;7359537;32;20130;-64
2022/07/29 15:11:40;;;;;;;7.28;1.80;;;24.90;99.90;;;;;;7359778;32;20119;-65
2022/07/29 15:15:41;;;;;;;6.75;2.35;;;25.10;99.90;;;;;;7360547;32;20176;-64
2022/07/29 15:19:43;;;;;;;5.37;2.17;;;25.20;99.90;;;;;;7359838;32;20111;-64
2022/07/29 15:23:45;;;;;;;7.53;2.28;;;24.90;99.90;;;;;;7359670;32;20107;-64
2022/07/29 15:27:56;;;;;;;5.12;1.90;;;24.60;99.90;;;;;;7359591;32;20175;-64
2022/07/29 15:32:02;;;;;;;5.20;2.10;;;24.50;99.90;;;;;;7360092;32;20111;-64
2022/07/29 15:36:04;;;;;;;5.53;2.15;;;24.00;99.90;;;;;;7360098;32;20462;-65
2022/07/29 15:40:07;;;;;;;7.80;2.00;;;23.90;99.90;;;;;;7357883;32;20119;-65
2022/07/29 15:44:09;;;;;;;4.07;2.17;;;23.80;99.90;;;;;;7359156;32;20171;-65
2022/07/29 15:48:10;;;;;;;7.85;2.05;;;23.60;99.90;;;;;;7359300;32;20123;-65
2022/07/29 15:52:18;;;;;;;6.18;2.00;;;23.70;99.90;;;;;;7358253;32;20202;-65
2022/07/29 15:56:26;;;;;;;5.00;1.52;;;23.80;99.90;;;;;;7341168;32;20478;-65
2022/07/29 16:00:28;;;;;;;6.55;2.00;;;23.60;99.90;;;;;;7358724;32;20129;-64
2022/07/29 16:04:30;;;;;;;4.45;1.92;;;23.40;99.90;;;;;;7359598;32;20112;-65
2022/07/29 16:08:32;;;;;;;10.50;2.15;;;23.30;99.90;;;;;;7358258;32;20148;-64
2022/07/29 16:12:34;;;;;;;7.10;2.33;;;23.20;99.90;;;;;;7360383;32;20127;-66
2022/07/29 16:16:36;;;;;;;5.25;2.03;;;23.30;99.90;;;;;;7360753;32;20126;-65
2022/07/29 16:20:38;;;;;;;6.30;2.58;;;23.20;99.90;;;;;;7359263;32;20108;-65
2022/07/29 16:24:40;;;;;;;7.65;2.35;;;23.40;99.90;;;;;;7359561;32;20146;-65
2022/07/29 16:28:42;;;;;;;6.20;2.10;;;23.50;99.90;;;;;;7358770;32;20242;-66
2022/07/29 16:32:44;;;;;;;7.80;2.60;;;23.40;99.90;;;;;;7359167;32;20135;-66
2022/07/29 16:36:46;;;;;;;6.70;2.22;;;23.50;99.90;;;;;;7358910;32;20499;-65
2022/07/29 16:40:48;;;;;;;6.50;2.20;;;23.30;99.90;;;;;;7356375;32;20134;-66
2022/07/29 16:44:50;;;;;;;11.52;2.72;;;23.20;99.90;;;;;;7357777;32;20503;-66
2022/07/29 16:48:52;;;;;;;9.30;2.50;;;23.30;99.90;;;;;;7357528;32;20123;-66
2022/07/29 16:52:55;;;;;;;10.90;2.25;;;23.30;99.90;;;;;;7357919;32;20319;-65
2022/07/29 16:56:58;;;;;;;7.37;2.37;;;23.20;99.90;;;;;;7334597;32;20179;-65
2022/07/29 17:01:01;;;;;;;5.00;2.03;;;23.20;99.90;;;;;;7331505;32;20529;-66
2022/07/29 17:05:05;;;;;;;10.52;5.10;;;23.00;99.90;;;;;;7332469;32;20110;-66
2022/07/29 17:09:09;;;;;;;7.53;1.90;;;23.00;99.90;;;;;;7331981;32;20780;-66
2022/07/29 17:13:11;;;;;;;5.75;1.75;;;23.00;99.90;;;;;;7332358;32;20131;-66
2022/07/29 17:17:13;;;;;;;8.27;1.87;;;22.90;99.90;;;;;;7333119;32;20210;-66
2022/07/29 17:21:22;;;;;;;7.90;2.00;;;22.90;99.90;;;;;;7332460;32;20466;-63
2022/07/29 17:25:24;;;;;;;11.43;2.22;;;22.80;99.90;;;;;;7332837;32;20251;-65
2022/07/29 17:29:25;;;;;;;10.45;2.65;;;23.00;99.90;;;;;;7330855;32;20218;-65
2022/07/29 17:33:27;;;;;;;17.40;10.27;;;22.80;99.90;;;;;;7331456;32;20111;-65
2022/07/29 17:37:29;;;;;;;6.57;1.80;;;22.80;99.90;;;;;;7331755;32;20184;-64
2022/07/29 17:41:31;;;;;;;5.60;1.90;;;22.70;99.90;;;;;;7332045;32;20249;-64
2022/07/29 17:45:33;;;;;;;5.30;2.00;;;22.60;99.90;;;;;;7332183;32;20234;-64
2022/07/29 17:49:51;;;;;;;6.47;2.08;;;22.60;99.90;;;;;;7331470;32;20143;-64
2022/07/29 17:53:52;;;;;;;8.98;4.60;;;22.50;99.90;;;;;;7333422;32;20312;-64
2022/07/29 17:57:54;;;;;;;4.07;2.03;;;22.40;99.90;;;;;;7345659;32;20207;-64
2022/07/29 18:02:00;;;;;;;6.25;2.08;;;22.30;99.90;;;;;;7330615;32;20107;-64
2022/07/29 18:06:02;;;;;;;6.10;1.98;;;22.20;99.90;;;;;;7331462;32;20579;-65
2022/07/29 18:10:04;;;;;;;6.53;1.95;;;22.10;99.90;;;;;;7331966;32;20245;-65
2022/07/29 18:14:06;;;;;;;6.95;2.12;;;22.00;99.90;;;;;;7331332;32;20186;-64
2022/07/29 18:18:08;;;;;;;3.78;2.17;;;21.80;99.90;;;;;;7336119;32;20546;-64
2022/07/29 18:22:12;;;;;;;5.43;2.00;;;21.70;99.90;;;;;;7337277;32;20184;-64
2022/07/29 18:26:13;;;;;;;3.72;1.80;;;21.50;99.90;;;;;;7336173;32;20123;-64
2022/07/29 18:30:15;;;;;;;6.40;2.45;;;21.40;99.90;;;;;;7334849;32;20194;-65
2022/07/29 18:34:17;;;;;;;8.32;5.15;;;21.30;99.90;;;;;;7336760;32;20167;-65
2022/07/29 18:38:20;;;;;;;6.10;2.50;;;21.20;99.90;;;;;;7333648;32;20133;-65
2022/07/29 18:42:22;;;;;;;6.32;4.10;;;21.00;99.90;;;;;;7336533;32;20103;-64
2022/07/29 18:46:24;;;;;;;6.18;2.53;;;20.90;99.90;;;;;;7336035;32;20123;-64
2022/07/29 18:50:26;;;;;;;7.00;2.10;;;20.70;99.90;;;;;;7334791;32;20285;-64
2022/07/29 18:54:30;;;;;;;7.47;2.00;;;20.60;99.90;;;;;;7342540;32;20194;-64
2022/07/29 18:58:32;;;;;;;7.50;2.55;;;20.50;99.90;;;;;;7345683;32;20184;-65
2022/07/29 19:02:36;;;;;;;4.97;2.30;;;20.30;99.90;;;;;;7336046;32;20127;-64
2022/07/29 19:06:39;;;;;;;5.65;2.53;;;20.10;99.90;;;;;;7335054;32;20146;-64
2022/07/29 19:10:41;;;;;;;6.37;2.53;;;19.90;99.90;;;;;;7335231;32;20140;-65
2022/07/29 19:14:43;;;;;;;3.10;2.15;;;19.70;99.90;;;;;;7335806;32;20179;-66
2022/07/29 19:18:46;;;;;;;7.18;2.83;;;19.50;99.90;;;;;;7335207;32;20183;-66
2022/07/29 19:22:47;;;;;;;6.18;2.37;;;19.30;99.90;;;;;;7335948;32;20111;-66
2022/07/29 19:26:49;;;;;;;9.63;2.58;;;19.10;99.90;;;;;;7335902;32;20135;-66
2022/07/29 19:30:51;;;;;;;4.62;2.25;;;18.90;99.90;;;;;;7334208;32;20138;-66
2022/07/29 19:39:14;;;;;;;7.62;2.75;;;18.50;99.90;;;;;;7334780;32;20131;-62
2022/07/29 19:43:15;;;;;;;5.97;3.00;;;18.30;99.90;;;;;;7335811;32;20498;-61
2022/07/29 19:47:37;;;;;;;9.50;2.80;;;18.10;99.90;;;;;;7334966;32;20112;-63
2022/07/29 19:51:40;;;;;;;5.62;2.60;;;18.00;99.90;;;;;;7335311;32;20179;-61
2022/07/29 19:55:42;;;;;;;6.60;3.08;;;17.90;99.90;;;;;;7349249;32;20107;-61
2022/07/29 19:59:44;;;;;;;7.28;2.95;;;17.70;99.90;;;;;;7338022;32;20112;-61
2022/07/29 20:03:45;;;;;;;4.53;2.78;;;17.60;99.90;;;;;;7335191;32;20127;-61
2022/07/29 20:07:47;;;;;;;8.88;3.30;;;17.50;99.90;;;;;;7334030;32;20172;-62
2022/07/29 20:11:49;;;;;;;10.20;3.35;;;17.30;99.90;;;;;;7334064;32;20115;-62
2022/07/29 20:15:51;;;;;;;5.28;3.03;;;17.20;99.90;;;;;;7334897;32;20149;-62
2022/07/29 20:19:53;;;;;;;6.97;3.12;;;17.10;99.90;;;;;;7333559;32;20179;-61
2022/07/29 20:23:59;;;;;;;10.10;3.58;;;17.00;99.90;;;;;;7334071;32;20734;-61
2022/07/29 20:28:00;;;;;;;16.15;10.00;;;17.00;99.90;;;;;;7333815;32;20159;-62
2022/07/29 20:32:03;;;;;;;8.82;4.30;;;16.80;99.90;;;;;;7334010;32;20144;-61
2022/07/29 20:36:05;;;;;;;5.90;3.22;;;16.70;99.90;;;;;;7334364;32;20108;-62
2022/07/29 20:40:07;;;;;;;7.18;3.20;;;16.60;99.90;;;;;;7332173;32;20206;-62
2022/07/29 20:44:13;;;;;;;11.13;3.20;;;16.50;99.90;;;;;;7333551;32;20137;-61
2022/07/29 20:48:15;;;;;;;7.18;3.35;;;16.40;99.90;;;;;;7332725;32;20115;-63
2022/07/29 20:52:18;;;;;;;5.87;3.28;;;16.40;99.90;;;;;;7333340;32;20187;-61
2022/07/29 20:56:20;;;;;;;8.60;3.65;;;16.30;99.90;;;;;;7350105;32;20111;-62
2022/07/29 21:00:22;;;;;;;6.22;3.37;;;16.30;99.90;;;;;;7333178;32;20119;-61
2022/07/29 21:04:25;;;;;;;9.63;3.25;;;16.30;99.90;;;;;;7333773;32;20507;-61
2022/07/29 21:08:31;;;;;;;7.12;2.95;;;16.30;99.90;;;;;;7332953;32;20119;-61
2022/07/29 21:12:33;;;;;;;9.32;3.42;;;16.30;99.90;;;;;;7332786;32;20170;-62
2022/07/29 21:16:35;;;;;;;5.87;3.05;;;16.30;99.90;;;;;;7333834;32;20469;-61
2022/07/29 21:20:36;;;;;;;8.73;3.15;;;16.30;99.90;;;;;;7332349;32;20230;-62